メインページ
METAR-TAF:

METAR-TAF

空港 :

カネオヘ, ハワイ州, アメリカ合衆国

緯度: 21-27-14N, 経度: 157-45-56W, 海抜: 5m

現時点の気象観測

当レポートは26分前の04:57(UTC)に作成
の風 5kt
気温 27°C
湿度 74%
気圧 1015 hPa
視程: 16.1km
高度10000ftの千切れ雲あり

METAR: PHNG 200457Z 10005KT 10SM BKN100 27/22 A2996 RMK AO2 SLP141 T02720217 $

時間: 19:23 (05:23 UTC)

予報

予報は20日の 03時(UTC)から 21日の 03時(UTC)まで有効
東/北東の風 8kt
視程10km以上
高度2500ftの雲はほとんどない
高度4500ftの雲は散在している
20日の 03時(UTC)から 20日の 09時(UTC)まで一時的に
変向風 5kt
高度3000ftの雲は散在している
高度4500ftの千切れ雲あり
20日の 12時(UTC)から 20日の 15時(UTC)まで一時的に
高度2500ftの千切れ雲あり
高度4500ftの千切れ雲あり

TAF: PHNG 2003/2103 06008KT 9999 FEW025 SCT045 QNH2992INS TEMPO 2003/2009 VRB05KT SCT030 BKN045 TEMPO 2012/2015 BKN025 BKN045 T24/2013Z T29/2023Z

4,000以上の空港の気象観測と天気予報(METAR報とTAF報)

利用可能な観測所は地図上に黄色い丸と赤い丸で示す。

丸の上にカーソルを重ねると観測所名を参照できる。

次にクリックすると気象観測と天気予報を参照できる。

マップの切り替え:黒色「×」印の緑ボタンをクリックして拡大、「-」印の緑ボタンをクリックして縮小、緑色の三角印をクリックして隣りの地図に切り替え


METAR-TAF: